Time;durP1;ratioP1;P1;durP2;ratioP2;P2;SDS_P1;SDS_P2;PMS_P1;PMS_P2;Temp;Humidity;BMP_temperature;BMP_pressure;BME280_temperature;BME280_humidity;BME280_pressure;Samples;Min_cycle;Max_cycle;Signal;HPM_P1;HPM_P2
2021/08/06 00:01:26;;;;;;;4.95;2.80;;;;;;;18.28;69.18;99128.81;5052248;28;20053;-65
2021/08/06 00:03:55;;;;;;;3.35;2.50;;;;;;;18.28;69.21;99119.56;5051045;28;20053;-65
2021/08/06 00:06:27;;;;;;;3.45;2.63;;;;;;;18.22;69.35;99125.59;5052133;28;20383;-65
2021/08/06 00:08:54;;;;;;;3.58;2.70;;;;;;;18.23;69.47;99115.13;5051859;28;20053;-65
2021/08/06 00:11:27;;;;;;;3.88;3.08;;;;;;;18.23;69.04;99112.31;5052377;28;20057;-65
2021/08/06 00:13:55;;;;;;;4.13;2.60;;;;;;;18.24;69.44;99120.34;5051689;28;20057;-65
2021/08/06 00:16:22;;;;;;;5.07;2.85;;;;;;;18.24;69.54;99123.19;5052529;28;20060;-65
2021/08/06 00:18:51;;;;;;;3.58;2.90;;;;;;;18.25;69.46;99118.38;5052044;28;20060;-65
2021/08/06 00:21:19;;;;;;;3.63;2.63;;;;;;;18.29;69.64;99113.53;5051701;28;20060;-65
2021/08/06 00:23:47;;;;;;;3.63;2.78;;;;;;;18.30;69.70;99106.69;5051912;28;20490;-65
2021/08/06 00:26:14;;;;;;;3.70;2.50;;;;;;;18.28;69.95;99103.47;5051822;28;20049;-65
2021/08/06 00:28:43;;;;;;;3.63;2.67;;;;;;;18.33;69.72;99105.06;5051837;28;20049;-65
2021/08/06 00:31:10;;;;;;;3.15;2.72;;;;;;;18.35;69.93;99111.13;5052223;28;20486;-65
2021/08/06 00:33:38;;;;;;;4.22;3.10;;;;;;;18.41;69.66;99103.88;5052066;28;20060;-65
2021/08/06 00:36:06;;;;;;;3.35;2.47;;;;;;;18.48;69.25;99106.72;5051063;28;20045;-65
2021/08/06 00:38:35;;;;;;;3.63;2.45;;;;;;;18.41;69.65;99101.06;5051858;28;20474;-65
2021/08/06 00:41:02;;;;;;;4.63;3.00;;;;;;;18.42;69.33;99094.22;5052082;28;20056;-65
2021/08/06 00:43:32;;;;;;;4.35;2.67;;;;;;;18.39;69.51;99093.00;5052006;28;20060;-65
2021/08/06 00:45:59;;;;;;;;;;;;;;;18.31;69.76;99094.22;5052356;28;20045;-65
2021/08/06 00:48:27;;;;;;;3.20;2.80;;;;;;;18.30;69.96;99091.78;5043579;28;19920;-65
2021/08/06 00:50:54;;;;;;;3.83;2.83;;;;;;;18.32;69.97;99090.19;5051455;28;20059;-65
2021/08/06 00:53:23;;;;;;;3.65;2.80;;;;;;;18.32;69.89;99092.19;5052087;28;20060;-65
2021/08/06 00:55:51;;;;;;;5.13;2.75;;;;;;;18.32;69.89;99095.00;5051831;28;20398;-65
2021/08/06 00:58:19;;;;;;;4.65;2.70;;;;;;;18.30;70.03;99094.59;5051455;28;20048;-65
2021/08/06 01:00:48;;;;;;;3.20;2.53;;;;;;;18.31;70.20;99093.38;5051882;28;20075;-65
2021/08/06 01:03:22;;;;;;;4.18;2.70;;;;;;;18.32;70.65;99089.38;5051527;28;20402;-65
2021/08/06 01:06:00;;;;;;;3.65;2.70;;;;;;;18.32;70.62;99083.75;5051543;28;20053;-65
2021/08/06 01:08:38;;;;;;;3.17;2.25;;;;;;;18.33;70.42;99086.16;5051470;28;20486;-65
2021/08/06 01:11:07;;;;;;;3.72;2.53;;;;;;;18.34;70.56;99081.31;5051299;28;20053;-65
2021/08/06 01:13:42;;;;;;;5.05;2.83;;;;;;;18.34;70.55;99090.59;5051464;28;20064;-65
2021/08/06 01:16:12;;;;;;;3.35;2.58;;;;;;;18.35;70.85;99080.94;5054448;28;20056;-65
2021/08/06 01:18:48;;;;;;;3.95;2.63;;;;;;;18.38;70.90;99082.13;5055226;28;20466;-65
2021/08/06 01:21:18;;;;;;;3.33;2.53;;;;;;;18.38;71.08;99077.28;5055302;28;20059;-65
2021/08/06 01:23:48;;;;;;;4.82;3.10;;;;;;;18.38;70.99;99077.28;5055149;28;20481;-65
2021/08/06 01:26:20;;;;;;;4.70;2.63;;;;;;;18.40;70.75;99080.53;5054954;28;20064;-65
2021/08/06 01:28:50;;;;;;;3.45;2.75;;;;;;;18.41;71.00;99079.28;5055202;28;20053;-66
2021/08/06 01:31:27;;;;;;;3.95;2.55;;;;;;;18.41;71.10;99081.31;5054932;28;20057;-66
2021/08/06 01:33:55;;;;;;;3.83;2.75;;;;;;;18.42;71.13;99078.09;5054226;28;20149;-66
2021/08/06 01:36:22;;;;;;;5.82;2.80;;;;;;;18.44;71.42;99074.91;5054906;28;20056;-66
2021/08/06 01:38:51;;;;;;;3.17;2.65;;;;;;;18.46;71.13;99078.13;5054501;28;20071;-66
2021/08/06 01:41:26;;;;;;;4.35;2.83;;;;;;;18.48;70.97;99070.06;5054704;28;20060;-66
2021/08/06 01:44:04;;;;;;;3.10;2.40;;;;;;;18.51;70.89;99074.88;5054866;28;20488;-66
2021/08/06 01:46:36;;;;;;;2.65;2.38;;;;;;;18.56;70.87;99082.97;5054685;28;20474;-66
2021/08/06 01:49:09;;;;;;;3.92;2.40;;;;;;;18.55;70.79;99075.69;5054505;28;20486;-65
2021/08/06 01:51:39;;;;;;;3.83;2.90;;;;;;;18.50;70.68;99078.94;5053934;28;20052;-65
2021/08/06 01:54:07;;;;;;;3.55;2.83;;;;;;;18.52;70.97;99062.41;5054578;28;20419;-65
2021/08/06 01:56:37;;;;;;;4.05;2.83;;;;;;;18.55;71.00;99067.22;5054948;28;20061;-65
2021/08/06 01:59:05;;;;;;;4.03;2.50;;;;;;;18.56;71.07;99066.03;5053930;28;20529;-65
2021/08/06 02:01:33;;;;;;;3.40;2.67;;;;;;;18.57;71.14;99075.28;5054818;28;20089;-65
2021/08/06 02:04:01;;;;;;;4.40;3.10;;;;;;;18.60;70.78;99058.34;5053666;28;20053;-65
2021/08/06 02:06:28;;;;;;;3.45;2.25;;;;;;;18.51;70.98;99065.63;5046841;28;20057;-65
2021/08/06 02:08:56;;;;;;;3.30;2.20;;;;;;;18.56;70.61;99066.03;5033913;28;20053;-66
2021/08/06 02:11:23;;;;;;;4.53;2.70;;;;;;;18.62;70.22;99064.41;5034337;28;20064;-65
2021/08/06 02:13:52;;;;;;;3.35;2.28;;;;;;;18.68;70.00;99062.00;5034146;28;20053;-65
2021/08/06 02:16:23;;;;;;;3.78;2.80;;;;;;;18.71;69.99;99060.38;5033643;28;20049;-65
2021/08/06 02:18:55;;;;;;;3.53;2.38;;;;;;;18.71;69.79;99052.72;5033810;28;20054;-65
2021/08/06 02:21:27;;;;;;;3.63;2.35;;;;;;;18.79;69.83;99050.72;5034284;28;20495;-65
2021/08/06 02:23:58;;;;;;;3.70;2.13;;;;;;;18.76;69.84;99052.31;5034272;28;20506;-65
2021/08/06 02:26:26;;;;;;;3.55;2.28;;;;;;;18.79;70.12;99047.91;5033816;28;20057;-65
2021/08/06 02:28:55;;;;;;;4.20;2.50;;;;;;;18.83;70.07;99040.22;5033954;28;20411;-65
2021/08/06 02:31:23;;;;;;;4.53;2.33;;;;;;;18.86;69.94;99036.63;5034004;28;20060;-65
2021/08/06 02:33:51;;;;;;;4.05;2.60;;;;;;;18.89;69.66;99032.97;5033664;28;20053;-65
2021/08/06 02:36:18;;;;;;;3.00;2.40;;;;;;;18.85;69.19;99038.63;5033413;28;20073;-65
2021/08/06 02:38:46;;;;;;;5.30;2.60;;;;;;;18.88;69.52;99037.03;5034009;28;20049;-65
2021/08/06 02:41:14;;;;;;;3.65;2.58;;;;;;;18.89;69.24;99037.81;5032956;28;20061;-65
2021/08/06 02:43:43;;;;;;;3.33;2.35;;;;;;;18.83;69.25;99026.94;5033818;28;20054;-65
2021/08/06 02:46:12;;;;;;;4.07;2.30;;;;;;;18.83;68.86;99023.31;5033135;28;20447;-65
2021/08/06 02:48:41;;;;;;;3.67;2.70;;;;;;;18.83;68.94;99034.59;5033718;28;20049;-65
2021/08/06 02:51:08;;;;;;;;;;;;;;;18.78;68.66;99020.88;5033898;28;20053;-65
2021/08/06 02:53:35;;;;;;;5.68;2.38;;;;;;;18.80;68.99;99024.94;5033645;28;20292;-65
2021/08/06 02:56:03;;;;;;;5.30;2.65;;;;;;;18.78;69.40;99018.06;5033180;28;20053;-65
2021/08/06 02:58:30;;;;;;;3.55;2.60;;;;;;;18.70;69.90;99022.09;5033377;28;20049;-65
2021/08/06 03:00:58;;;;;;;4.70;2.63;;;;;;;18.67;69.77;99026.53;5033179;28;20152;-65
2021/08/06 03:03:26;;;;;;;4.85;2.92;;;;;;;18.58;70.24;99023.31;5033070;28;20418;-65
2021/08/06 03:05:54;;;;;;;3.93;3.53;;;;;;;18.53;70.26;99021.72;5033012;28;20047;-65
2021/08/06 03:08:21;;;;;;;4.57;3.00;;;;;;;18.46;70.41;99022.53;5032813;28;20467;-65
2021/08/06 03:10:48;;;;;;;4.13;3.13;;;;;;;18.36;70.72;99014.06;5033474;28;20072;-65
2021/08/06 03:13:16;;;;;;;4.38;3.00;;;;;;;18.23;70.92;99008.03;5032848;28;20505;-65
2021/08/06 03:15:43;;;;;;;3.50;3.00;;;;;;;18.20;71.39;99011.66;5033164;28;20391;-65
2021/08/06 03:18:12;;;;;;;4.25;3.40;;;;;;;18.12;71.85;99012.84;5032704;28;20054;-65
2021/08/06 03:20:40;;;;;;;7.05;3.40;;;;;;;18.03;72.10;99007.59;5032940;28;20060;-65
2021/08/06 03:23:08;;;;;;;5.63;3.33;;;;;;;18.00;72.43;98995.13;5032660;28;20137;-65
2021/08/06 03:25:35;;;;;;;4.68;3.00;;;;;;;17.97;72.72;99001.56;5032930;28;20068;-65
2021/08/06 03:28:03;;;;;;;3.70;3.00;;;;;;;17.96;72.67;98990.72;5032213;28;20056;-65
2021/08/06 03:30:31;;;;;;;4.65;3.47;;;;;;;17.92;72.86;98992.72;5032689;28;20060;-65
2021/08/06 03:32:58;;;;;;;6.35;4.00;;;;;;;17.91;72.82;98996.72;5032786;28;20399;-65
2021/08/06 03:35:26;;;;;;;4.05;3.13;;;;;;;17.90;72.80;98998.75;5032530;28;20049;-65
2021/08/06 03:37:55;;;;;;;4.18;2.85;;;;;;;17.91;72.48;99003.19;5031288;28;20053;-66
2021/08/06 03:40:22;;;;;;;4.33;2.77;;;;;;;17.93;72.38;98988.69;5032769;28;20057;-65
2021/08/06 03:42:49;;;;;;;3.00;2.67;;;;;;;17.89;72.01;98987.88;5032231;28;20057;-65
2021/08/06 03:45:17;;;;;;;4.78;2.70;;;;;;;17.93;71.82;98997.13;5032127;28;20467;-65
2021/08/06 03:47:44;;;;;;;4.70;2.40;;;;;;;17.95;71.54;99003.16;5032157;28;20064;-65
2021/08/06 03:50:11;;;;;;;3.83;2.70;;;;;;;17.90;71.50;99000.75;5032134;28;20057;-65
2021/08/06 03:52:42;;;;;;;3.20;2.50;;;;;;;17.94;71.35;99001.56;5032554;28;20398;-65
2021/08/06 03:55:11;;;;;;;4.18;2.50;;;;;;;17.95;71.29;99005.97;5031932;28;20402;-65
2021/08/06 03:57:49;;;;;;;6.60;2.45;;;;;;;17.97;71.26;99003.56;5032303;28;20497;-65
2021/08/06 04:00:17;;;;;;;3.47;2.60;;;;;;;17.95;71.19;99000.34;5032345;28;20056;-65
2021/08/06 04:02:45;;;;;;;3.67;2.50;;;;;;;17.94;71.24;99004.38;5032430;28;20136;-65
2021/08/06 04:05:12;;;;;;;2.85;2.13;;;;;;;17.95;71.37;99005.97;5031995;28;20057;-65
2021/08/06 04:07:42;;;;;;;4.75;2.40;;;;;;;18.02;71.37;99000.38;5031655;28;20049;-65
2021/08/06 04:10:13;;;;;;;2.70;2.42;;;;;;;18.10;70.87;98995.53;5031975;28;20073;-65
2021/08/06 04:12:40;;;;;;;3.05;2.17;;;;;;;18.02;71.00;98986.28;5032331;28;20049;-65
2021/08/06 04:15:08;;;;;;;4.32;2.55;;;;;;;18.20;70.70;98989.91;5031686;28;20053;-65
2021/08/06 04:17:39;;;;;;;3.05;2.08;;;;;;;18.33;70.10;98987.50;5031894;28;20050;-65
2021/08/06 04:20:08;;;;;;;3.20;2.10;;;;;;;18.35;70.09;98995.53;5032019;28;20387;-65
2021/08/06 04:22:35;;;;;;;4.13;2.05;;;;;;;18.51;69.65;99000.78;5031701;28;20057;-65
2021/08/06 04:25:03;;;;;;;5.75;2.38;;;;;;;18.53;69.60;99004.78;5032038;28;20057;-65
2021/08/06 04:27:32;;;;;;;4.03;2.35;;;;;;;18.58;69.70;99006.38;5032157;28;20053;-65
2021/08/06 04:29:59;;;;;;;5.25;2.60;;;;;;;18.66;69.30;99003.16;5032140;28;20060;-65
2021/08/06 04:32:27;;;;;;;3.03;2.42;;;;;;;18.72;69.38;99005.59;5031398;28;20056;-65
2021/08/06 04:34:54;;;;;;;3.03;1.83;;;;;;;18.69;69.33;99006.38;5032051;28;20487;-65
2021/08/06 04:37:21;;;;;;;3.70;2.20;;;;;;;18.77;69.02;99008.81;5031540;28;20387;-65
2021/08/06 04:39:49;;;;;;;2.40;1.90;;;;;;;18.72;69.37;99000.72;5032127;28;20049;-65
2021/08/06 04:42:17;;;;;;;6.63;2.42;;;;;;;18.73;69.32;99007.16;5031456;28;20058;-65
2021/08/06 04:44:45;;;;;;;2.85;1.83;;;;;;;18.72;69.81;99005.59;5031695;28;20064;-65
2021/08/06 04:47:13;;;;;;;3.37;1.90;;;;;;;18.75;69.73;99004.75;5031450;28;20049;-65
2021/08/06 04:49:40;;;;;;;4.20;2.55;;;;;;;18.86;69.73;98999.94;5034361;28;20053;-65
2021/08/06 04:52:08;;;;;;;4.30;1.92;;;;;;;18.79;69.73;98995.13;5035447;28;20056;-65
2021/08/06 04:54:35;;;;;;;3.42;2.03;;;;;;;18.79;69.83;99005.59;5035530;28;20049;-65
2021/08/06 04:57:03;;;;;;;3.13;1.73;;;;;;;19.00;69.30;98991.44;5035458;28;20057;-65
2021/08/06 04:59:30;;;;;;;2.85;2.00;;;;;;;19.11;68.77;98993.41;5035129;28;20056;-65
2021/08/06 05:01:59;;;;;;;2.45;1.85;;;;;;;19.21;68.34;98993.38;5035493;28;20057;-65
2021/08/06 05:04:26;;;;;;;2.33;1.70;;;;;;;19.27;68.50;98993.75;5035305;28;20053;-65
2021/08/06 05:06:54;;;;;;;3.60;1.65;;;;;;;19.19;68.70;98995.81;5035509;28;20057;-65
2021/08/06 05:09:21;;;;;;;3.53;2.03;;;;;;;19.18;71.13;98990.56;5034712;28;20494;-65
2021/08/06 05:11:48;;;;;;;3.22;2.10;;;;;;;19.10;71.44;98988.97;5035015;28;20651;-65
2021/08/06 05:14:15;;;;;;;2.97;2.10;;;;;;;19.14;71.63;98989.78;5034635;28;20053;-65
2021/08/06 05:16:43;;;;;;;2.75;1.98;;;;;;;19.32;71.01;98987.69;5034919;28;20046;-65
2021/08/06 05:19:12;;;;;;;2.33;1.80;;;;;;;19.34;70.93;98985.25;5035063;28;20049;-65
2021/08/06 05:21:39;;;;;;;2.17;1.83;;;;;;;19.39;70.27;98987.66;5035270;28;20494;-65
2021/08/06 05:24:06;;;;;;;2.95;2.00;;;;;;;19.45;70.93;98980.34;5035101;28;20053;-65
2021/08/06 05:26:34;;;;;;;2.55;1.83;;;;;;;19.41;69.47;98987.25;5035219;28;20060;-64
2021/08/06 05:29:01;;;;;;;2.55;1.80;;;;;;;19.18;70.62;98982.09;5034943;28;20052;-64
2021/08/06 05:31:28;;;;;;;2.85;1.70;;;;;;;19.19;70.30;98978.88;5034860;28;20061;-64
2021/08/06 05:33:55;;;;;;;2.40;1.70;;;;;;;19.37;69.26;98980.81;5034627;28;20049;-65
2021/08/06 05:36:24;;;;;;;2.95;1.95;;;;;;;19.52;68.96;98978.72;5034770;28;20064;-65
2021/08/06 05:38:52;;;;;;;3.33;1.77;;;;;;;19.53;68.76;98978.31;5035075;28;20064;-65
2021/08/06 05:41:19;;;;;;;3.28;1.67;;;;;;;19.58;68.51;98979.88;5034973;28;20057;-65
2021/08/06 05:43:46;;;;;;;2.10;1.55;;;;;;;19.68;68.45;98984.69;5034804;28;20065;-65
2021/08/06 05:46:14;;;;;;;2.10;1.60;;;;;;;19.53;69.09;98980.31;5035162;28;20430;-65
2021/08/06 05:48:41;;;;;;;2.45;1.52;;;;;;;19.69;68.19;98983.44;5035362;28;20060;-65
2021/08/06 05:51:09;;;;;;;2.47;1.60;;;;;;;19.50;68.72;98979.13;5035362;28;20049;-64
2021/08/06 05:53:37;;;;;;;3.80;1.60;;;;;;;19.75;68.01;98986.69;5035100;28;20054;-64
2021/08/06 05:56:05;;;;;;;2.22;1.60;;;;;;;19.92;67.18;98980.09;5034959;28;20053;-64
2021/08/06 05:58:32;;;;;;;3.47;1.70;;;;;;;19.56;67.97;98985.16;5034408;28;20057;-64
2021/08/06 06:01:01;;;;;;;2.95;1.70;;;;;;;19.72;67.88;98995.97;5033979;28;20057;-64
2021/08/06 06:03:28;;;;;;;2.45;1.88;;;;;;;19.46;68.61;98986.81;5034614;28;20054;-64
2021/08/06 06:05:56;;;;;;;3.67;1.85;;;;;;;19.51;68.38;98986.38;5034811;28;20068;-64
2021/08/06 06:08:23;;;;;;;2.42;1.85;;;;;;;19.48;68.57;98988.00;5033601;28;20053;-64
2021/08/06 06:10:51;;;;;;;2.30;1.55;;;;;;;19.59;68.50;98987.13;5034374;28;20368;-65
2021/08/06 06:13:19;;;;;;;3.20;1.80;;;;;;;19.86;67.76;98985.41;5033978;28;20053;-65
2021/08/06 06:15:46;;;;;;;2.22;1.70;;;;;;;20.02;67.05;98981.25;5034366;28;20475;-65
2021/08/06 06:18:15;;;;;;;2.63;1.77;;;;;;;20.16;66.60;98977.50;5033799;28;20065;-65
2021/08/06 06:20:43;;;;;;;2.42;1.30;;;;;;;20.07;66.65;98992.09;5033956;28;20057;-65
2021/08/06 06:23:10;;;;;;;3.20;1.80;;;;;;;19.84;67.88;98985.00;5033995;28;20053;-65
2021/08/06 06:25:37;;;;;;;3.03;1.77;;;;;;;19.63;68.59;98997.22;5034309;28;20399;-65
2021/08/06 06:28:07;;;;;;;2.78;1.88;;;;;;;19.65;70.55;99006.09;5034015;28;20398;-65
2021/08/06 06:30:35;;;;;;;2.85;2.08;;;;;;;19.75;71.76;99000.81;5033626;28;20053;-65
2021/08/06 06:33:04;;;;;;;3.97;2.00;;;;;;;19.66;72.40;99004.06;5034131;28;20160;-65
2021/08/06 06:35:32;;;;;;;2.55;1.90;;;;;;;19.65;70.85;99002.44;5033730;28;20057;-65
2021/08/06 06:38:02;;;;;;;2.78;1.83;;;;;;;19.53;72.79;99008.53;5033366;28;20418;-65
2021/08/06 06:40:30;;;;;;;;;;;;;;;19.38;72.28;99008.63;5033444;28;20060;-65
2021/08/06 06:42:57;;;;;;;3.47;2.00;;;;;;;18.95;74.89;99014.41;5033772;28;19920;-64
2021/08/06 06:45:26;;;;;;;2.80;2.20;;;;;;;18.96;75.85;99010.41;5033299;28;20057;-64
2021/08/06 06:47:54;;;;;;;5.30;2.63;;;;;;;18.34;83.84;99019.31;5033548;28;20494;-65
2021/08/06 06:50:24;;;;;;;4.40;2.95;;;;;;;18.26;83.10;99010.84;5033041;28;20141;-65
2021/08/06 06:52:51;;;;;;;4.60;2.63;;;;;;;18.10;83.87;99009.63;5033433;28;20076;-65
2021/08/06 06:55:42;;;;;;;2.95;2.55;;;;;;;18.35;82.09;99021.72;5033248;28;20064;-65
2021/08/06 06:58:10;;;;;;;3.33;2.90;;;;;;;18.45;80.68;99020.09;5033063;28;20121;-66
2021/08/06 07:00:39;;;;;;;3.40;2.90;;;;;;;18.55;80.43;99018.50;5033185;28;20065;-66
2021/08/06 07:03:06;;;;;;;3.40;2.65;;;;;;;18.38;82.35;99020.13;5033075;28;20418;-66
2021/08/06 07:05:33;;;;;;;7.03;2.60;;;;;;;18.31;82.06;99020.09;5032614;28;20057;-64
2021/08/06 07:08:02;;;;;;;3.90;2.58;;;;;;;18.30;81.87;99019.31;5032630;28;20051;-64
2021/08/06 07:10:29;;;;;;;3.55;2.28;;;;;;;18.48;80.89;99018.47;5032618;28;20054;-64
2021/08/06 07:12:57;;;;;;;3.55;2.33;;;;;;;18.59;80.17;99020.09;5033387;28;20064;-64
2021/08/06 07:15:24;;;;;;;4.18;2.00;;;;;;;18.64;79.67;99022.50;5032192;28;20053;-64
2021/08/06 07:17:53;;;;;;;3.17;2.50;;;;;;;18.81;79.95;99020.88;5032918;28;20053;-64
2021/08/06 07:20:21;;;;;;;2.03;1.77;;;;;;;18.84;79.07;99030.56;5032586;28;20390;-64
2021/08/06 07:22:59;;;;;;;2.17;1.55;;;;;;;18.76;78.80;99034.59;5032996;28;20056;-64
2021/08/06 07:25:27;;;;;;;2.73;1.90;;;;;;;19.06;77.69;99032.13;5032498;28;20053;-64
2021/08/06 07:27:55;;;;;;;3.85;1.67;;;;;;;19.31;77.10;99030.44;5032487;28;20057;-65
2021/08/06 07:30:22;;;;;;;3.28;1.50;;;;;;;19.37;76.39;99026.78;5032151;28;20060;-64
2021/08/06 07:32:50;;;;;;;2.53;1.70;;;;;;;19.35;76.93;99019.94;5032536;28;20387;-64
2021/08/06 07:35:21;;;;;;;2.25;1.55;;;;;;;19.77;76.42;99029.44;5031966;28;20390;-64
2021/08/06 07:37:48;;;;;;;2.10;1.65;;;;;;;19.73;76.06;99031.50;5032133;28;20068;-65
2021/08/06 07:40:17;;;;;;;1.75;1.13;;;;;;;19.80;75.04;99037.91;5032300;28;20053;-65
2021/08/06 07:42:45;;;;;;;1.80;1.30;;;;;;;19.82;74.70;99038.31;5032539;28;20054;-65
2021/08/06 07:45:14;;;;;;;1.90;1.38;;;;;;;19.82;74.77;99029.84;5032404;28;20503;-65
2021/08/06 07:47:41;;;;;;;1.80;1.40;;;;;;;20.04;74.03;99029.69;5031979;28;20403;-65
2021/08/06 07:50:09;;;;;;;1.60;1.42;;;;;;;20.26;73.31;99033.16;5032161;28;20477;-65
2021/08/06 07:52:39;;;;;;;4.60;1.90;;;;;;;20.30;73.68;99033.13;5031731;28;20068;-65
2021/08/06 07:55:07;;;;;;;;;;;;;;;20.73;71.02;99036.44;5032416;28;20395;-65
2021/08/06 07:57:34;;;;;;;2.83;1.33;;;;;;;21.05;70.77;99032.47;5031700;28;20389;-65
2021/08/06 08:00:01;;;;;;;1.80;1.15;;;;;;;21.01;70.03;99021.19;5031917;28;20057;-66
2021/08/06 08:02:31;;;;;;;2.78;1.60;;;;;;;21.45;69.95;99030.00;5031879;28;20069;-66
2021/08/06 08:04:59;;;;;;;2.53;1.52;;;;;;;21.27;69.66;99033.84;5031626;28;20053;-66
2021/08/06 08:07:26;;;;;;;2.30;1.40;;;;;;;21.29;69.24;99030.56;5031550;28;20056;-66
2021/08/06 08:09:55;;;;;;;2.08;1.25;;;;;;;21.60;67.62;99041.97;5031771;28;20053;-65
2021/08/06 08:12:22;;;;;;;3.80;1.70;;;;;;;21.61;69.58;99032.25;5031892;28;20052;-65
2021/08/06 08:14:49;;;;;;;4.00;1.60;;;;;;;21.63;68.95;99030.59;5032082;28;20065;-65
2021/08/06 08:17:17;;;;;;;2.63;1.23;;;;;;;21.75;67.21;99034.06;5032235;28;20498;-65
2021/08/06 08:19:45;;;;;;;1.73;1.10;;;;;;;21.98;67.21;99036.19;5031630;28;20045;-65
2021/08/06 08:22:12;;;;;;;1.70;1.30;;;;;;;22.04;66.96;99029.59;5031999;28;20054;-65
2021/08/06 08:24:40;;;;;;;2.55;1.38;;;;;;;22.31;64.67;99033.69;5034177;28;20076;-65
2021/08/06 08:27:09;;;;;;;2.47;1.38;;;;;;;22.30;65.92;99027.22;5035965;28;20053;-65
2021/08/06 08:29:36;;;;;;;2.33;1.52;;;;;;;22.06;64.98;99032.81;5035284;28;20072;-65
2021/08/06 08:32:04;;;;;;;2.95;1.33;;;;;;;22.50;64.17;99033.75;5036012;28;20057;-65
2021/08/06 08:34:32;;;;;;;1.85;1.08;;;;;;;22.61;63.98;99025.06;5035596;28;20061;-65
2021/08/06 08:36:59;;;;;;;2.20;1.50;;;;;;;22.64;61.58;99029.88;5035587;28;20060;-65
2021/08/06 08:39:26;;;;;;;2.20;1.50;;;;;;;22.89;62.58;99029.44;5035315;28;20046;-65
2021/08/06 08:41:54;;;;;;;2.67;1.48;;;;;;;22.98;62.32;99033.75;5035987;28;20057;-65
2021/08/06 08:44:23;;;;;;;2.88;1.33;;;;;;;24.21;58.07;99027.13;5034992;28;20060;-65
2021/08/06 08:46:51;;;;;;;1.83;1.20;;;;;;;24.87;57.24;99013.72;5035660;28;20096;-65
2021/08/06 08:49:23;;;;;;;1.50;1.27;;;;;;;25.92;52.91;99024.56;5035129;28;20057;-65
2021/08/06 08:51:50;;;;;;;2.55;1.50;;;;;;;25.09;55.60;99028.16;5035632;28;20053;-65
2021/08/06 08:54:18;;;;;;;2.67;1.40;;;;;;;24.76;56.58;99038.81;5035124;28;20060;-66
2021/08/06 08:56:45;;;;;;;2.60;1.50;;;;;;;25.08;56.04;99030.22;5035357;28;20045;-66
2021/08/06 08:59:13;;;;;;;3.10;1.70;;;;;;;25.02;54.93;99028.38;5035142;28;20049;-66
2021/08/06 09:01:42;;;;;;;3.10;1.50;;;;;;;25.33;54.96;99022.25;5034752;28;20057;-66
2021/08/06 09:04:18;;;;;;;;;;;;;;;25.00;53.19;99025.16;5035464;28;20053;-66
2021/08/06 09:06:45;;;;;;;2.40;1.70;;;;;;;25.48;53.71;99024.22;5035025;28;19921;-66
2021/08/06 09:09:14;;;;;;;2.22;1.70;;;;;;;25.83;52.26;99021.56;5035064;28;20060;-66
2021/08/06 09:11:42;;;;;;;3.25;1.70;;;;;;;25.77;52.78;99014.84;5034992;28;20383;-66
2021/08/06 09:14:21;;;;;;;3.15;1.85;;;;;;;25.56;51.16;99024.84;5035057;28;20060;-66
2021/08/06 09:17:01;;;;;;;3.10;2.22;;;;;;;25.63;51.16;99026.66;5035268;28;20049;-66
2021/08/06 09:19:31;;;;;;;3.45;2.30;;;;;;;25.55;52.85;99020.38;5034739;28;20408;-66
2021/08/06 09:22:17;;;;;;;4.20;2.30;;;;;;;25.07;51.92;99019.25;5035053;28;20486;-66
2021/08/06 09:25:07;;;;;;;4.30;2.60;;;;;;;25.24;51.37;99018.00;5034438;28;20046;-66
2021/08/06 09:27:36;;;;;;;2.50;2.28;;;;;;;26.09;50.55;99024.47;5034781;28;20069;-66
2021/08/06 09:30:07;;;;;;;2.95;2.38;;;;;;;27.38;48.58;99020.09;5034459;28;20060;-66
2021/08/06 09:32:54;;;;;;;4.50;2.28;;;;;;;27.26;46.05;99020.97;5034686;28;20050;-66
2021/08/06 09:35:23;;;;;;;2.17;1.98;;;;;;;26.58;48.88;99021.25;5033491;28;20057;-66
2021/08/06 09:37:51;;;;;;;3.03;2.00;;;;;;;25.90;49.74;99032.78;5034215;28;20062;-66
2021/08/06 09:40:20;;;;;;;2.88;1.90;;;;;;;26.20;49.99;99029.84;5034614;28;20060;-66
2021/08/06 09:42:59;;;;;;;2.53;1.85;;;;;;;25.77;49.41;99031.16;5035008;28;20060;-66
2021/08/06 09:45:29;;;;;;;3.13;2.07;;;;;;;26.09;50.10;99030.97;5034654;28;20167;-66
2021/08/06 09:47:57;;;;;;;3.67;1.83;;;;;;;25.50;50.77;99024.56;5034489;28;20124;-66
2021/08/06 09:50:32;;;;;;;3.03;1.70;;;;;;;24.70;53.44;99030.81;5034046;28;20489;-66
2021/08/06 09:53:00;;;;;;;3.17;1.88;;;;;;;24.27;56.00;99036.75;5033761;28;20072;-66
2021/08/06 09:55:31;;;;;;;5.18;4.25;;;;;;;23.74;60.68;99072.88;5034035;28;20064;-65
2021/08/06 09:57:59;;;;;;;2.35;1.73;;;;;;;23.69;59.38;99077.81;5034342;28;20406;-65
2021/08/06 10:00:28;;;;;;;2.10;1.40;;;;;;;23.58;59.60;99073.59;5033765;28;20045;-65
2021/08/06 10:02:58;;;;;;;2.47;1.45;;;;;;;23.37;59.75;99078.50;5033887;28;20479;-65
2021/08/06 10:05:27;;;;;;;4.35;1.58;;;;;;;23.05;60.78;99076.25;5049927;28;20418;-65
2021/08/06 10:07:56;;;;;;;3.10;1.90;;;;;;;23.00;61.02;99066.16;5050410;28;20378;-65
2021/08/06 10:10:24;;;;;;;;;;;;;;;23.03;59.86;99062.47;5053179;28;20053;-65
2021/08/06 10:12:53;;;;;;;2.53;1.55;;;;;;;23.19;61.83;99072.34;5051402;28;20381;-65
2021/08/06 10:15:22;;;;;;;3.20;2.50;;;;;;;26.24;58.64;99061.91;5054207;28;20370;-65
2021/08/06 10:17:50;;;;;;;2.50;1.70;;;;;;;29.55;49.33;99054.59;5053934;28;20053;-65
2021/08/06 10:20:22;;;;;;;2.90;1.17;;;;;;;30.11;41.55;99055.31;5053813;28;20044;-65
2021/08/06 10:22:50;;;;;;;2.33;1.60;;;;;;;29.94;43.13;99054.88;5034004;28;20486;-65
2021/08/06 10:25:19;;;;;;;2.67;1.60;;;;;;;32.11;37.54;99048.34;5050442;28;20056;-65
2021/08/06 10:27:48;;;;;;;1.80;1.35;;;;;;;34.21;36.44;99056.28;5051184;28;20064;-66
2021/08/06 10:30:21;;;;;;;;;;;;;;;34.64;32.17;99046.91;5051095;28;20060;-66
2021/08/06 10:33:13;;;;;;;2.13;1.10;;;;;;;33.26;33.73;99053.94;5051353;28;19921;-66
2021/08/06 10:35:47;;;;;;;2.38;1.73;;;;;;;32.44;34.02;99053.03;5052581;28;20418;-66
2021/08/06 10:38:15;;;;;;;2.05;1.20;;;;;;;32.07;36.37;99050.63;5049353;28;20131;-65
2021/08/06 10:41:13;;;;;;;2.53;1.25;;;;;;;32.04;35.12;99052.38;5052185;28;20343;-66
2021/08/06 10:44:02;;;;;;;1.80;1.17;;;;;;;31.51;36.87;99054.03;5052973;28;20414;-66
2021/08/06 10:46:52;;;;;;;2.05;1.55;;;;;;;31.26;36.87;99068.94;5052228;28;20056;-65
2021/08/06 10:49:20;;;;;;;2.22;1.45;;;;;;;30.66;38.00;99068.66;5053879;28;20053;-64
2021/08/06 10:51:49;;;;;;;2.60;1.35;;;;;;;30.18;38.83;99070.59;5052997;28;20056;-64
2021/08/06 10:54:35;;;;;;;2.67;1.42;;;;;;;29.91;38.07;99058.69;5051684;28;20071;-65
2021/08/06 10:57:38;;;;;;;2.80;1.48;;;;;;;29.58;40.00;99057.78;5039254;28;20421;-64
2021/08/06 11:00:07;;;;;;;2.00;1.80;;;;;;;30.76;38.61;99063.63;5051251;28;20057;-64
2021/08/06 11:02:43;;;;;;;2.47;2.08;;;;;;;32.96;34.66;99059.84;5049445;28;20049;-65
2021/08/06 11:05:36;;;;;;;2.00;1.45;;;;;;;33.13;32.90;99054.31;5048040;28;20060;-65
2021/08/06 11:08:56;;;;;;;2.58;1.67;;;;;;;33.65;32.49;99058.63;5048893;28;20067;-65
2021/08/06 11:11:53;;;;;;;2.42;1.40;;;;;;;31.53;33.52;99060.09;5049047;28;20045;-66
2021/08/06 11:14:58;;;;;;;1.73;1.30;;;;;;;30.17;37.42;99064.03;5044160;28;20048;-66
2021/08/06 11:17:34;;;;;;;2.28;1.77;;;;;;;30.55;37.24;99054.84;5033372;28;20064;-66
2021/08/06 11:20:10;;;;;;;3.05;1.88;;;;;;;30.75;36.55;99053.44;5047311;28;20060;-65
2021/08/06 11:22:39;;;;;;;3.13;1.90;;;;;;;29.72;39.96;99052.22;5041036;28;20050;-65
2021/08/06 11:25:17;;;;;;;2.80;1.80;;;;;;;32.08;36.11;99049.31;5050677;28;20060;-67
2021/08/06 11:27:48;;;;;;;2.42;1.60;;;;;;;32.40;35.52;99064.75;5044363;28;20077;-66
2021/08/06 11:30:19;;;;;;;2.78;1.60;;;;;;;30.63;39.20;99066.75;5049428;28;20382;-66
2021/08/06 11:32:56;;;;;;;3.15;1.70;;;;;;;30.68;38.28;99063.22;5041600;28;20046;-66
2021/08/06 11:35:25;;;;;;;3.38;1.58;;;;;;;30.15;39.50;99060.88;5040632;28;20512;-66
2021/08/06 11:37:56;;;;;;;2.40;1.50;;;;;;;29.73;38.96;99064.47;5051568;28;20073;-66
2021/08/06 11:40:25;;;;;;;2.85;1.65;;;;;;;30.37;36.61;99052.03;5052542;28;20397;-66
2021/08/06 11:42:53;;;;;;;2.75;1.65;;;;;;;31.06;35.10;99041.59;5052183;28;20053;-66
2021/08/06 11:45:25;;;;;;;2.50;1.80;;;;;;;33.12;32.18;99058.53;5046624;28;20048;-66
2021/08/06 11:47:59;;;;;;;2.42;1.80;;;;;;;35.09;28.60;99044.22;5052321;28;20478;-66